Terminal Aerodrome Forecast
Issued by NWS Blacksburg, VA

Current Version | Previous Version | Text Only | Print | Product List | Glossary Off
Versions: 1 2 3 4 5 6 7 8 9 10 11 12 13 14 15 16 17 18 19 20 21 22 23 24 25 26 27 28 29 30 31 32 33 34 35 36 37 38 39 40 41 42 43 44 45

000
FTUS41 KRNK 142322
TAFBLF
TAF
KBLF 142322Z 1500/1524 17003KT P6SM OVC015
     FM150600 21003KT 6SM BR OVC012
      TEMPO 1508/1511 2SM -RADZ OVC008
     FM151400 23005KT P6SM BKN025
     FM151700 27008KT P6SM BKN050=

USA.gov is the U.S. government's official web portal to all federal, state and local government web resources and services.